createdAt,value
2023-03-16T00:01:27.576Z,57.10
2023-03-16T00:06:30.414Z,56.43
2023-03-16T00:11:32.628Z,57.18
2023-03-16T00:16:35.754Z,58.44
2023-03-16T00:21:37.938Z,57.97
2023-03-16T00:26:40.081Z,58.02
2023-03-16T00:31:45.682Z,58.04
2023-03-16T00:36:48.345Z,57.32
2023-03-16T00:41:50.504Z,57.64
2023-03-16T00:46:53.333Z,58.13
2023-03-16T00:51:55.457Z,58.04
2023-03-16T00:56:57.998Z,58.78
2023-03-16T01:02:15.598Z,59.03
2023-03-16T01:07:18.070Z,58.92
2023-03-16T01:12:20.611Z,58.90
2023-03-16T01:17:24.333Z,58.59
2023-03-16T01:22:27.238Z,59.39
2023-03-16T01:27:29.423Z,59.26
2023-03-16T01:32:31.716Z,58.64
2023-03-16T01:37:33.898Z,58.63
2023-03-16T01:42:47.310Z,60.60
2023-03-16T01:47:50.275Z,59.38
2023-03-16T01:52:52.640Z,58.69
2023-03-16T01:57:55.884Z,58.01
2023-03-16T02:03:06.226Z,57.74
2023-03-16T02:08:10.071Z,58.29
2023-03-16T02:13:12.626Z,58.27
2023-03-16T02:18:15.473Z,58.00
2023-03-16T02:23:21.406Z,57.94
2023-03-16T02:28:58.492Z,58.24
2023-03-16T02:34:03.254Z,59.42
2023-03-16T02:39:06.258Z,59.42
2023-03-16T02:44:19.482Z,59.91
2023-03-16T02:49:27.067Z,59.93
2023-03-16T02:54:29.228Z,59.63
2023-03-16T02:59:31.615Z,59.88
2023-03-16T03:04:33.879Z,59.97
2023-03-16T03:09:36.077Z,60.38
2023-03-16T03:14:39.068Z,60.58
2023-03-16T03:19:41.546Z,60.36
2023-03-16T03:24:44.175Z,60.21
2023-03-16T03:29:46.379Z,59.80
2023-03-16T03:34:48.494Z,60.33
2023-03-16T03:39:50.718Z,60.81
2023-03-16T03:44:53.481Z,60.66
2023-03-16T03:49:55.849Z,61.55
2023-03-16T03:54:58.020Z,60.91
2023-03-16T04:00:00.243Z,61.00
2023-03-16T04:05:02.449Z,61.21
2023-03-16T04:10:05.484Z,61.59
2023-03-16T04:15:07.985Z,61.57
2023-03-16T04:20:14.848Z,61.85
2023-03-16T04:25:19.250Z,62.07
2023-03-16T04:30:21.536Z,61.14
2023-03-16T04:35:23.644Z,60.82
2023-03-16T04:40:26.731Z,60.89
2023-03-16T04:45:29.057Z,61.54
2023-03-16T04:50:31.441Z,61.13
2023-03-16T04:55:34.007Z,61.79
2023-03-16T05:00:36.112Z,62.37
2023-03-16T05:05:40.115Z,62.58
2023-03-16T05:10:42.599Z,62.65
2023-03-16T05:15:44.808Z,62.66
2023-03-16T05:20:49.448Z,62.28
2023-03-16T05:25:51.870Z,62.82
2023-03-16T05:30:54.134Z,63.06
2023-03-16T05:35:58.363Z,62.87
2023-03-16T05:41:04.653Z,62.25
2023-03-16T05:46:07.948Z,62.89
2023-03-16T05:51:10.136Z,63.19
2023-03-16T05:56:12.517Z,62.91
2023-03-16T06:01:15.931Z,63.17
2023-03-16T06:06:19.685Z,63.44
2023-03-16T06:11:21.984Z,63.09
2023-03-16T06:16:24.924Z,62.92
2023-03-16T06:21:27.248Z,62.91
2023-03-16T06:26:29.508Z,63.71
2023-03-16T06:31:31.673Z,63.57
2023-03-16T06:36:34.355Z,62.59
2023-03-16T06:41:36.506Z,63.02
2023-03-16T06:46:38.838Z,62.77
2023-03-16T06:51:42.169Z,62.52
2023-03-16T06:56:46.403Z,62.40
2023-03-16T07:01:50.573Z,62.64
2023-03-16T07:06:52.822Z,62.64
2023-03-16T07:11:54.977Z,61.86
2023-03-16T07:16:57.290Z,62.00
2023-03-16T07:21:59.814Z,60.86
2023-03-16T07:27:02.872Z,60.36
2023-03-16T07:32:05.480Z,61.15
2023-03-16T07:37:08.946Z,61.67
2023-03-16T07:42:11.072Z,61.38
2023-03-16T07:47:14.000Z,59.79
2023-03-16T07:52:16.178Z,58.82
2023-03-16T07:57:18.445Z,58.51
2023-03-16T08:02:22.133Z,58.38
2023-03-16T08:07:24.799Z,57.98
2023-03-16T08:12:27.137Z,57.55
2023-03-16T08:17:29.428Z,56.96
2023-03-16T08:22:31.512Z,56.79
2023-03-16T08:27:34.717Z,57.13
2023-03-16T08:32:38.132Z,57.42
2023-03-16T08:37:41.742Z,57.32
2023-03-16T08:42:45.295Z,56.41
2023-03-16T08:47:47.426Z,56.38
2023-03-16T08:52:49.651Z,56.16
2023-03-16T08:57:52.641Z,55.84
2023-03-16T09:02:55.813Z,55.00
2023-03-16T09:07:58.035Z,54.62
2023-03-16T09:13:00.764Z,54.47
2023-03-16T09:18:04.656Z,54.51
2023-03-16T09:23:06.881Z,54.19
2023-03-16T09:28:09.196Z,53.61
2023-03-16T09:33:11.491Z,53.31
2023-03-16T09:38:14.613Z,52.96
2023-03-16T09:43:38.617Z,52.87
2023-03-16T09:48:41.542Z,52.92
2023-03-16T09:53:45.994Z,52.85
2023-03-16T09:58:48.349Z,52.17
2023-03-16T10:04:12.660Z,52.38
2023-03-16T10:09:36.519Z,52.58
2023-03-16T10:15:22.664Z,52.51
2023-03-16T10:20:27.869Z,52.14
2023-03-16T10:25:49.638Z,51.75
2023-03-16T10:30:55.777Z,52.31
2023-03-16T10:36:29.995Z,52.12
2023-03-16T10:41:35.563Z,52.27
2023-03-16T10:46:48.904Z,52.05
2023-03-16T10:51:52.599Z,52.05
2023-03-16T10:56:56.657Z,52.28
2023-03-16T11:01:58.775Z,52.66
2023-03-16T11:07:01.760Z,53.43
2023-03-16T11:12:30.589Z,53.04
2023-03-16T11:17:40.184Z,53.34
2023-03-16T11:22:48.859Z,53.33
2023-03-16T11:28:26.366Z,53.35
2023-03-16T11:33:31.393Z,53.32
2023-03-16T11:38:44.542Z,52.76
2023-03-16T11:43:53.081Z,52.95
2023-03-16T11:49:19.443Z,53.09
2023-03-16T11:54:44.753Z,52.62
2023-03-16T12:00:24.853Z,52.53
2023-03-16T12:05:49.505Z,52.10
2023-03-16T12:11:05.036Z,52.05
2023-03-16T12:16:39.029Z,52.04
2023-03-16T12:22:01.879Z,52.84
2023-03-16T12:27:07.175Z,51.60
2023-03-16T12:32:22.865Z,50.96
2023-03-16T12:37:47.867Z,51.25
2023-03-16T12:43:11.033Z,50.33
2023-03-16T12:48:27.506Z,49.94
2023-03-16T12:53:44.054Z,50.24
2023-03-16T12:58:49.795Z,50.43
2023-03-16T13:04:02.462Z,50.53
2023-03-16T13:09:08.431Z,49.71
2023-03-16T13:14:32.849Z,49.53
2023-03-16T13:19:38.437Z,49.41
2023-03-16T13:24:53.904Z,49.05
2023-03-16T13:30:02.334Z,48.72
2023-03-16T13:35:06.366Z,48.82
2023-03-16T13:45:54.252Z,48.30
2023-03-16T13:50:58.199Z,48.40
2023-03-16T13:56:02.620Z,47.58
2023-03-16T14:01:19.619Z,47.00
2023-03-16T14:06:26.331Z,46.69
2023-03-16T14:11:28.908Z,46.39
2023-03-16T14:16:32.326Z,46.80
2023-03-16T14:21:35.957Z,46.29
2023-03-16T14:26:46.721Z,45.86
2023-03-16T14:31:48.990Z,45.14
2023-03-16T14:36:51.461Z,45.07
2023-03-16T14:41:53.881Z,44.77
2023-03-16T14:47:00.298Z,44.22
2023-03-16T14:52:32.429Z,44.10
2023-03-16T14:57:35.198Z,43.44
2023-03-16T15:02:37.490Z,43.37
2023-03-16T15:07:41.557Z,43.78
2023-03-16T15:12:54.315Z,44.38
2023-03-16T15:17:56.581Z,44.92
2023-03-16T15:22:59.903Z,45.04
2023-03-16T15:28:03.189Z,45.14
2023-03-16T15:33:06.379Z,44.82
2023-03-16T15:38:22.890Z,44.16
2023-03-16T15:43:29.188Z,43.69
2023-03-16T15:48:32.190Z,43.91
2023-03-16T15:53:42.120Z,43.87
2023-03-16T15:58:47.019Z,44.16
2023-03-16T16:03:50.284Z,43.99
2023-03-16T16:08:52.734Z,44.01
2023-03-16T16:13:58.476Z,43.38
2023-03-16T16:19:01.031Z,43.15
2023-03-16T16:24:03.588Z,44.13
2023-03-16T16:29:17.295Z,43.81
2023-03-16T16:34:22.608Z,43.81
2023-03-16T16:39:25.031Z,43.76
2023-03-16T16:44:34.422Z,43.60
2023-03-16T16:49:38.403Z,43.96
2023-03-16T16:54:40.567Z,43.48
2023-03-16T16:59:45.947Z,43.42
2023-03-16T17:04:48.292Z,43.36
2023-03-16T17:09:51.293Z,44.75
2023-03-16T17:14:54.069Z,45.42
2023-03-16T17:19:56.217Z,45.45
2023-03-16T17:24:58.956Z,44.28
2023-03-16T17:30:01.242Z,44.90
2023-03-16T17:35:06.492Z,45.09
2023-03-16T17:40:18.274Z,45.79
2023-03-16T17:45:25.084Z,45.95
2023-03-16T17:50:30.108Z,46.57
2023-03-16T17:55:32.704Z,47.39
2023-03-16T18:00:37.057Z,47.24
2023-03-16T18:05:40.052Z,47.74
2023-03-16T18:10:43.999Z,48.00
2023-03-16T18:15:47.500Z,47.78
2023-03-16T18:20:52.433Z,48.09
2023-03-16T18:25:57.009Z,48.38
2023-03-16T18:30:59.915Z,48.69
2023-03-16T18:36:05.357Z,49.34
2023-03-16T18:41:28.551Z,49.63
2023-03-16T18:46:36.757Z,49.79
2023-03-16T18:51:39.486Z,50.77
2023-03-16T18:56:41.930Z,50.64
2023-03-16T19:01:45.644Z,50.88
2023-03-16T19:06:49.672Z,51.26
2023-03-16T19:11:52.441Z,51.21
2023-03-16T19:16:55.937Z,51.57
2023-03-16T19:22:15.609Z,52.10
2023-03-16T19:27:24.223Z,53.10
2023-03-16T19:32:27.027Z,52.43
2023-03-16T19:37:30.364Z,52.54
2023-03-16T19:42:37.332Z,52.95
2023-03-16T19:47:39.506Z,52.94
2023-03-16T19:52:42.286Z,53.01
2023-03-16T19:57:45.889Z,52.08
2023-03-16T20:02:48.779Z,52.11
2023-03-16T20:07:51.106Z,52.16
2023-03-16T20:13:02.021Z,51.66
2023-03-16T20:18:05.570Z,51.73
2023-03-16T20:23:28.706Z,51.03
2023-03-16T20:28:36.681Z,51.38
2023-03-16T20:33:38.880Z,52.00
2023-03-16T20:38:41.749Z,52.24
2023-03-16T20:43:44.692Z,52.25
2023-03-16T20:48:47.335Z,52.30
2023-03-16T20:53:50.768Z,53.27
2023-03-16T20:58:56.719Z,53.29
2023-03-16T21:04:00.402Z,53.19
2023-03-16T21:09:03.713Z,53.21
2023-03-16T21:14:12.776Z,52.61
2023-03-16T21:19:18.060Z,51.96
2023-03-16T21:24:20.730Z,52.34
2023-03-16T21:29:24.504Z,51.81
2023-03-16T21:34:37.709Z,52.38
2023-03-16T21:39:40.697Z,51.59
2023-03-16T21:44:42.946Z,52.06
2023-03-16T21:49:45.042Z,52.05
2023-03-16T21:54:47.872Z,51.82
2023-03-16T21:59:50.773Z,51.79
2023-03-16T22:04:53.972Z,51.90
2023-03-16T22:09:56.257Z,51.62
2023-03-16T22:14:58.469Z,51.70
2023-03-16T22:20:00.639Z,51.93
2023-03-16T22:25:04.538Z,52.23
2023-03-16T22:30:09.885Z,51.71
2023-03-16T22:35:26.843Z,51.15
2023-03-16T22:40:32.592Z,51.07
2023-03-16T22:45:36.336Z,50.71
2023-03-16T22:50:38.738Z,51.40
2023-03-16T22:55:41.320Z,51.39
2023-03-16T23:00:45.073Z,51.02
2023-03-16T23:05:47.394Z,50.61
2023-03-16T23:10:51.903Z,50.22
2023-03-16T23:15:55.648Z,50.11
2023-03-16T23:20:57.785Z,49.96
2023-03-16T23:26:00.594Z,50.22
2023-03-16T23:31:03.174Z,49.39
2023-03-16T23:36:14.572Z,49.70
2023-03-16T23:41:21.978Z,50.06
2023-03-16T23:46:26.424Z,50.38
2023-03-16T23:51:31.473Z,50.02
2023-03-16T23:56:34.218Z,49.67
